Aguas Frias, Brazil
Current Conditions -  °F | °C
As of 4:00 PM on Thursday 23 Oct 2014 (Local Time) from SBCH Reporting Station
Clear Clear  
Wind Chill: 84°   Ceiling: Unl
Heat Index: 84°   Visibility: 6mi
Dew Point: 55°   Wind: 12mph
Humidity: 37%   Direction: 350°N
Pressure: 30"   Gusts: NA
Location:  26.88°S, 52.86°W
Report Text: SBCH 231800Z 35010KT CAVOK 29/13 Q1016
Loading
Personal Weather Stations






























Interactive Weather Map
Tropical Storm Tracking
New forecast layout! Learn more

10-Day Weather Forecast

Advertisements
Track Severe Weather on mobile